Cherry Hill, Arkansas
Current Conditions -  °F | °C
As of 4:53 PM on Wednesday 26 Nov 2014 (Local Time) from KRUE Reporting Station
Clear Clear  
Wind Chill: 54°   Ceiling: Unl
Heat Index: 54°   Visibility: 10mi
Dew Point: 27°   Wind: 9mph
Humidity: 35%   Direction: 290°WNW
Pressure: 30.11"   Gusts: NA
Location:  34.9067°N, 93.0072°W
Report Text: KRUE 262253Z AUTO 29008KT 10SM CLR 12/M03 A3011 RMK AO2 SLP192 T01221028
Loading
Personal Weather Stations






























Interactive Weather Map New forecast layout! Learn more

10-Day Weather Forecast

Advertisements
Track Severe Weather on mobile